createdAt,value
2018-09-20T00:01:09.467Z,64.90
2018-09-20T00:03:37.771Z,65.10
2018-09-20T00:06:06.077Z,65.10
2018-09-20T00:08:34.420Z,65.00
2018-09-20T00:11:02.781Z,65.00
2018-09-20T00:13:31.132Z,64.80
2018-09-20T00:15:59.515Z,65.00
2018-09-20T00:18:27.907Z,65.00
2018-09-20T00:20:56.287Z,64.90
2018-09-20T00:23:24.671Z,64.70
2018-09-20T00:25:53.039Z,64.30
2018-09-20T00:28:21.523Z,64.00
2018-09-20T00:30:49.829Z,64.00
2018-09-20T00:33:18.195Z,64.20
2018-09-20T00:35:46.577Z,64.10
2018-09-20T00:38:14.937Z,64.00
2018-09-20T00:40:43.376Z,64.10
2018-09-20T00:43:11.689Z,64.40
2018-09-20T00:45:40.030Z,64.90
2018-09-20T00:48:09.207Z,64.90
2018-09-20T00:50:37.723Z,64.70
2018-09-20T00:53:06.472Z,64.20
2018-09-20T00:55:34.836Z,64.10
2018-09-20T00:58:03.168Z,64.30
2018-09-20T01:00:31.684Z,64.70
2018-09-20T01:03:00.208Z,64.80
2018-09-20T01:05:28.624Z,64.60
2018-09-20T01:07:56.946Z,64.20
2018-09-20T01:10:25.270Z,64.10
2018-09-20T01:12:53.580Z,63.90
2018-09-20T01:15:21.928Z,63.80
2018-09-20T01:17:50.296Z,64.20
2018-09-20T01:20:18.639Z,64.80
2018-09-20T01:22:47.051Z,64.10
2018-09-20T01:25:15.410Z,64.20
2018-09-20T01:27:43.770Z,64.20
2018-09-20T01:30:12.127Z,64.80
2018-09-20T01:32:40.451Z,65.30
2018-09-20T01:35:11.031Z,65.80
2018-09-20T01:37:39.374Z,65.90
2018-09-20T01:40:07.804Z,65.40
2018-09-20T01:42:36.149Z,65.10
2018-09-20T01:45:04.835Z,65.10
2018-09-20T01:47:33.800Z,65.20
2018-09-20T01:50:02.219Z,65.70
2018-09-20T01:52:30.556Z,65.80
2018-09-20T01:54:58.903Z,65.60
2018-09-20T01:57:27.244Z,65.40
2018-09-20T01:59:55.709Z,65.10
2018-09-20T02:02:24.071Z,64.90
2018-09-20T02:04:52.765Z,65.60
2018-09-20T02:07:21.111Z,66.40
2018-09-20T02:09:49.512Z,67.10
2018-09-20T02:12:17.994Z,68.20
2018-09-20T02:14:46.482Z,68.80
2018-09-20T02:17:14.810Z,68.80
2018-09-20T02:19:43.266Z,69.40
2018-09-20T02:22:11.654Z,69.60
2018-09-20T02:24:40.008Z,69.50
2018-09-20T02:27:08.474Z,69.50
2018-09-20T02:29:36.919Z,69.30
2018-09-20T02:32:05.234Z,69.30
2018-09-20T02:34:33.551Z,69.30
2018-09-20T02:37:01.892Z,69.50
2018-09-20T02:39:30.229Z,69.40
2018-09-20T02:41:58.558Z,69.40
2018-09-20T02:44:26.906Z,69.40
2018-09-20T02:46:55.252Z,69.20
2018-09-20T02:49:23.613Z,69.00
2018-09-20T02:51:51.928Z,68.60
2018-09-20T02:54:20.258Z,68.30
2018-09-20T02:56:48.591Z,68.60
2018-09-20T02:59:16.921Z,67.90
2018-09-20T03:01:45.284Z,68.30
2018-09-20T03:04:13.618Z,68.30
2018-09-20T03:06:41.967Z,68.60
2018-09-20T03:09:11.235Z,68.60
2018-09-20T03:11:39.550Z,68.80
2018-09-20T03:14:08.065Z,68.90
2018-09-20T03:16:36.497Z,68.90
2018-09-20T03:19:05.100Z,69.10
2018-09-20T03:21:33.478Z,69.20
2018-09-20T03:24:01.812Z,69.20
2018-09-20T03:26:30.263Z,69.10
2018-09-20T03:28:58.610Z,69.00
2018-09-20T03:31:26.945Z,68.80
2018-09-20T03:33:55.291Z,68.40
2018-09-20T03:36:23.615Z,67.90
2018-09-20T03:38:52.068Z,67.50
2018-09-20T03:41:20.382Z,67.30
2018-09-20T03:43:48.730Z,67.20
2018-09-20T03:46:17.060Z,67.20
2018-09-20T03:48:45.408Z,67.40
2018-09-20T03:51:13.763Z,69.20
2018-09-20T03:53:42.075Z,68.50
2018-09-20T03:56:10.428Z,68.70
2018-09-20T03:58:38.757Z,68.60
2018-09-20T04:01:07.160Z,68.50
2018-09-20T04:03:35.518Z,68.80
2018-09-20T04:06:04.434Z,68.60
2018-09-20T04:08:32.847Z,69.00
2018-09-20T04:11:01.127Z,68.90
2018-09-20T04:13:29.449Z,68.90
2018-09-20T04:15:57.795Z,68.80
2018-09-20T04:18:26.139Z,68.80
2018-09-20T04:21:01.193Z,68.40
2018-09-20T04:23:29.523Z,67.80
2018-09-20T04:25:57.879Z,67.40
2018-09-20T04:28:26.264Z,67.10
2018-09-20T04:30:54.573Z,67.00
2018-09-20T04:33:22.895Z,67.50
2018-09-20T04:35:51.243Z,67.40
2018-09-20T04:38:19.626Z,67.70
2018-09-20T04:40:48.059Z,67.70
2018-09-20T04:43:17.005Z,67.50
2018-09-20T04:45:45.988Z,67.00
2018-09-20T04:48:14.316Z,66.60
2018-09-20T04:51:15.757Z,66.00
2018-09-20T04:53:44.175Z,65.90
2018-09-20T04:56:12.519Z,65.90
2018-09-20T04:58:40.853Z,65.90
2018-09-20T05:01:09.662Z,65.90
2018-09-20T05:03:38.025Z,65.80
2018-09-20T05:06:06.384Z,65.80
2018-09-20T05:08:35.340Z,65.80
2018-09-20T05:11:03.711Z,65.80
2018-09-20T05:13:32.017Z,66.50
2018-09-20T05:16:07.087Z,65.80
2018-09-20T05:18:35.407Z,65.70
2018-09-20T05:21:04.473Z,65.70
2018-09-20T05:23:32.810Z,65.70
2018-09-20T05:26:01.145Z,65.70
2018-09-20T05:28:29.563Z,65.60
2018-09-20T05:30:57.899Z,65.60
2018-09-20T05:33:29.177Z,65.60
2018-09-20T05:35:57.532Z,65.60
2018-09-20T05:38:25.835Z,65.60
2018-09-20T05:40:54.349Z,65.50
2018-09-20T05:43:22.688Z,65.50
2018-09-20T05:45:51.345Z,65.60
2018-09-20T05:48:19.834Z,65.50
2018-09-20T05:50:49.343Z,65.50
2018-09-20T05:53:17.545Z,65.50
2018-09-20T05:55:46.883Z,65.50
2018-09-20T05:58:15.255Z,65.60
2018-09-20T06:00:44.301Z,65.60
2018-09-20T06:03:12.635Z,65.60
2018-09-20T06:05:40.976Z,65.80
2018-09-20T06:08:09.301Z,66.00
2018-09-20T06:10:37.661Z,65.60
2018-09-20T06:13:06.068Z,65.60
2018-09-20T06:15:34.409Z,66.00
2018-09-20T06:18:02.756Z,66.30
2018-09-20T06:20:31.086Z,66.60
2018-09-20T06:22:59.459Z,66.50
2018-09-20T06:25:27.847Z,66.10
2018-09-20T06:27:56.310Z,65.70
2018-09-20T06:30:24.668Z,65.70
2018-09-20T06:32:53.007Z,65.80
2018-09-20T06:35:22.347Z,65.80
2018-09-20T06:37:51.066Z,65.80
2018-09-20T06:40:19.857Z,65.80
2018-09-20T06:42:49.266Z,65.90
2018-09-20T06:45:17.577Z,66.60
2018-09-20T06:47:45.891Z,67.20
2018-09-20T06:50:14.291Z,67.70
2018-09-20T06:52:42.626Z,67.10
2018-09-20T06:55:10.980Z,66.70
2018-09-20T06:57:39.438Z,66.40
2018-09-20T07:00:08.269Z,66.70
2018-09-20T07:02:37.220Z,66.80
2018-09-20T07:05:06.187Z,66.60
2018-09-20T07:07:34.624Z,66.60
2018-09-20T07:10:03.033Z,66.70
2018-09-20T07:12:31.503Z,66.80
2018-09-20T07:14:59.893Z,67.20
2018-09-20T07:17:28.341Z,67.20
2018-09-20T07:19:57.039Z,67.30
2018-09-20T07:22:25.417Z,67.40
2018-09-20T07:24:54.449Z,67.60
2018-09-20T07:27:23.372Z,68.10
2018-09-20T07:29:51.706Z,67.60
2018-09-20T07:32:20.623Z,67.60
2018-09-20T07:34:49.104Z,67.30
2018-09-20T07:37:18.558Z,67.00
2018-09-20T07:39:47.008Z,66.70
2018-09-20T07:42:16.012Z,66.40
2018-09-20T07:44:44.340Z,65.90
2018-09-20T07:47:12.662Z,65.90
2018-09-20T07:49:40.996Z,66.40
2018-09-20T07:52:16.137Z,65.10
2018-09-20T07:54:44.450Z,64.40
2018-09-20T07:57:12.904Z,64.80
2018-09-20T07:59:41.256Z,63.90
2018-09-20T08:02:09.631Z,63.70
2018-09-20T08:04:37.998Z,63.40
2018-09-20T08:07:06.377Z,64.00
2018-09-20T08:09:34.711Z,63.10
2018-09-20T08:12:03.085Z,62.50
2018-09-20T08:14:31.425Z,62.50
2018-09-20T08:16:59.775Z,63.60
2018-09-20T08:19:28.231Z,62.40
2018-09-20T08:21:56.633Z,61.70
2018-09-20T08:24:24.992Z,60.90
2018-09-20T08:26:53.304Z,61.50
2018-09-20T08:29:21.663Z,61.00
2018-09-20T08:31:50.004Z,60.30
2018-09-20T08:34:18.882Z,59.30
2018-09-20T08:36:47.234Z,57.40
2018-09-20T08:39:15.552Z,56.70
2018-09-20T08:41:43.920Z,57.30
2018-09-20T08:44:12.272Z,56.50
2018-09-20T08:46:40.632Z,55.20
2018-09-20T08:49:09.013Z,54.50
2018-09-20T08:51:37.340Z,54.30
2018-09-20T08:54:05.969Z,54.60
2018-09-20T08:56:34.482Z,53.80
2018-09-20T08:59:03.004Z,54.00
2018-09-20T09:01:31.452Z,52.90
2018-09-20T09:03:59.889Z,51.10
2018-09-20T09:06:28.332Z,51.80
2018-09-20T09:08:57.003Z,50.70
2018-09-20T09:11:25.325Z,48.40
2018-09-20T09:13:53.656Z,49.20
2018-09-20T09:16:22.015Z,48.70
2018-09-20T09:18:50.381Z,47.80
2018-09-20T09:21:18.743Z,47.50
2018-09-20T09:23:47.087Z,46.90
2018-09-20T09:26:15.513Z,46.30
2018-09-20T09:28:43.901Z,43.00
2018-09-20T09:31:12.235Z,44.10
2018-09-20T09:33:40.569Z,43.10
2018-09-20T09:36:08.903Z,43.20
2018-09-20T09:38:37.253Z,42.10
2018-09-20T09:41:05.701Z,40.50
2018-09-20T09:43:34.067Z,39.50
2018-09-20T09:46:02.424Z,39.50
2018-09-20T09:48:30.755Z,39.00
2018-09-20T09:50:59.198Z,37.80
2018-09-20T09:53:27.651Z,37.70
2018-09-20T09:55:55.987Z,37.80
2018-09-20T09:58:24.380Z,37.10
2018-09-20T10:00:52.730Z,36.80
2018-09-20T10:03:21.096Z,36.60
2018-09-20T10:05:49.553Z,36.80
2018-09-20T10:08:17.889Z,36.70
2018-09-20T10:10:46.963Z,36.20
2018-09-20T10:13:15.333Z,36.40
2018-09-20T10:15:43.609Z,35.90
2018-09-20T10:18:11.935Z,36.10
2018-09-20T10:20:40.276Z,35.90
2018-09-20T10:23:08.643Z,35.70
2018-09-20T10:25:37.103Z,35.40
2018-09-20T10:28:05.480Z,36.40
2018-09-20T10:30:34.595Z,35.50
2018-09-20T10:33:03.609Z,35.90
2018-09-20T10:35:32.092Z,36.00
2018-09-20T10:38:00.392Z,34.70
2018-09-20T10:40:28.779Z,35.20
2018-09-20T10:42:57.187Z,35.20
2018-09-20T10:45:25.575Z,34.50
2018-09-20T10:47:53.974Z,34.50
2018-09-20T10:50:22.289Z,34.50
2018-09-20T10:52:51.321Z,34.50
2018-09-20T10:55:19.634Z,34.00
2018-09-20T10:57:47.992Z,32.90
2018-09-20T11:00:17.062Z,33.80
2018-09-20T11:02:45.418Z,33.40
2018-09-20T11:05:13.779Z,33.20
2018-09-20T11:07:42.129Z,34.50
2018-09-20T11:10:10.476Z,34.10
2018-09-20T11:12:38.859Z,34.60
2018-09-20T11:15:07.284Z,34.90
2018-09-20T11:17:35.682Z,33.80
2018-09-20T11:20:04.603Z,34.60
2018-09-20T11:22:33.055Z,34.70
2018-09-20T11:25:01.445Z,34.90
2018-09-20T11:27:29.787Z,34.10
2018-09-20T11:29:58.124Z,34.40
2018-09-20T11:32:26.541Z,33.10
2018-09-20T11:34:54.928Z,32.50
2018-09-20T11:37:24.104Z,33.00
2018-09-20T11:39:52.460Z,32.80
2018-09-20T11:42:20.854Z,32.50
2018-09-20T11:44:49.262Z,32.30
2018-09-20T11:47:17.690Z,31.90
2018-09-20T11:49:46.034Z,32.30
2018-09-20T11:52:14.386Z,31.60
2018-09-20T11:54:43.227Z,31.10
2018-09-20T11:57:11.595Z,30.60
2018-09-20T11:59:39.937Z,30.40
2018-09-20T12:02:14.865Z,29.80
2018-09-20T12:04:43.282Z,29.70
2018-09-20T12:07:11.651Z,30.80
2018-09-20T12:09:39.995Z,30.70
2018-09-20T12:12:08.316Z,30.90
2018-09-20T12:14:36.707Z,30.30
2018-09-20T12:17:05.094Z,29.60
2018-09-20T12:19:33.530Z,30.40
2018-09-20T12:22:01.973Z,29.90
2018-09-20T12:24:30.336Z,29.60
2018-09-20T12:26:59.433Z,29.60
2018-09-20T12:29:27.755Z,29.40
2018-09-20T12:31:56.213Z,29.80
2018-09-20T12:34:24.533Z,29.30
2018-09-20T12:36:52.892Z,30.00
2018-09-20T12:39:21.279Z,29.80
2018-09-20T12:41:49.621Z,29.40
2018-09-20T12:44:17.996Z,29.10
2018-09-20T12:46:46.345Z,29.10
2018-09-20T12:49:14.715Z,29.50
2018-09-20T12:51:43.061Z,29.50
2018-09-20T12:54:11.854Z,29.30
2018-09-20T12:56:41.072Z,28.70
2018-09-20T12:59:09.468Z,28.90
2018-09-20T13:01:37.802Z,28.70
2018-09-20T13:04:06.173Z,28.50
2018-09-20T13:06:34.598Z,28.60
2018-09-20T13:09:02.987Z,29.00
2018-09-20T13:11:31.337Z,28.60
2018-09-20T13:13:59.687Z,27.90
2018-09-20T13:16:28.068Z,27.70
2018-09-20T13:18:56.460Z,28.70
2018-09-20T13:21:24.830Z,28.20
2018-09-20T13:23:59.743Z,28.30
2018-09-20T13:26:28.115Z,28.80
2018-09-20T13:28:56.507Z,28.70
2018-09-20T13:31:24.856Z,29.10
2018-09-20T13:33:53.227Z,28.50
2018-09-20T13:36:21.602Z,28.60
2018-09-20T13:38:50.075Z,28.40
2018-09-20T13:41:18.512Z,28.40
2018-09-20T13:43:46.931Z,28.60
2018-09-20T13:46:15.949Z,28.50
2018-09-20T13:48:44.275Z,28.40
2018-09-20T13:51:12.624Z,28.40
2018-09-20T13:53:40.959Z,29.10
2018-09-20T13:56:09.308Z,28.60
2018-09-20T13:58:38.213Z,28.40
2018-09-20T14:01:06.669Z,28.60
2018-09-20T14:03:35.109Z,28.80
2018-09-20T14:06:03.454Z,28.80
2018-09-20T14:08:32.522Z,29.20
2018-09-20T14:11:00.908Z,28.70
2018-09-20T14:13:29.316Z,29.20
2018-09-20T14:16:04.168Z,29.00
2018-09-20T14:18:32.619Z,29.10
2018-09-20T14:21:01.035Z,28.90
2018-09-20T14:23:29.458Z,28.40
2018-09-20T14:25:57.840Z,28.90
2018-09-20T14:28:26.944Z,28.00
2018-09-20T14:30:55.464Z,28.00
2018-09-20T14:33:23.800Z,28.30
2018-09-20T14:35:52.270Z,27.90
2018-09-20T14:38:20.601Z,28.40
2018-09-20T14:40:48.951Z,27.60
2018-09-20T14:43:17.304Z,28.00
2018-09-20T14:45:46.623Z,27.40
2018-09-20T14:48:14.977Z,27.30
2018-09-20T14:50:43.365Z,27.90
2018-09-20T14:53:11.720Z,28.10
2018-09-20T14:55:40.171Z,28.00
2018-09-20T14:58:08.540Z,28.20
2018-09-20T15:00:43.516Z,28.20
2018-09-20T15:03:11.828Z,27.70
2018-09-20T15:05:40.179Z,28.20
2018-09-20T15:08:08.669Z,28.00
2018-09-20T15:10:36.972Z,28.00
2018-09-20T15:13:05.498Z,27.00
2018-09-20T15:15:34.361Z,27.30
2018-09-20T15:18:02.775Z,26.90
2018-09-20T15:20:31.153Z,26.80
2018-09-20T15:22:59.488Z,27.30
2018-09-20T15:25:29.240Z,27.70
2018-09-20T15:27:57.604Z,27.00
2018-09-20T15:30:25.966Z,27.20
2018-09-20T15:32:54.308Z,27.80
2018-09-20T15:35:29.174Z,27.30
2018-09-20T15:37:57.527Z,27.80
2018-09-20T15:40:25.872Z,27.80
2018-09-20T15:42:54.357Z,28.00
2018-09-20T15:45:27.728Z,28.20
2018-09-20T15:47:56.094Z,27.80
2018-09-20T15:50:24.482Z,28.10
2018-09-20T15:52:52.831Z,28.10
2018-09-20T15:55:21.220Z,27.90
2018-09-20T15:57:49.596Z,28.10
2018-09-20T16:00:18.015Z,28.30
2018-09-20T16:02:46.424Z,28.90
2018-09-20T16:05:14.784Z,28.40
2018-09-20T16:07:43.212Z,28.90
2018-09-20T16:10:11.673Z,29.20
2018-09-20T16:12:40.057Z,28.90
2018-09-20T16:15:08.449Z,28.90
2018-09-20T16:17:36.796Z,29.90
2018-09-20T16:20:05.696Z,29.80
2018-09-20T16:22:34.062Z,29.80
2018-09-20T16:25:02.447Z,29.70
2018-09-20T16:27:30.853Z,29.60
2018-09-20T16:30:55.727Z,29.60
2018-09-20T16:33:53.107Z,30.00
2018-09-20T16:36:32.201Z,30.30
2018-09-20T16:39:14.853Z,30.40
2018-09-20T16:41:48.264Z,30.30
2018-09-20T16:44:16.653Z,30.30
2018-09-20T16:46:45.052Z,30.70
2018-09-20T16:49:13.433Z,30.90
2018-09-20T16:51:41.935Z,31.20
2018-09-20T16:54:10.333Z,31.50
2018-09-20T16:56:38.684Z,32.60
2018-09-20T16:59:07.027Z,32.70
2018-09-20T17:01:42.224Z,32.60
2018-09-20T17:04:10.682Z,33.50
2018-09-20T17:06:39.066Z,33.90
2018-09-20T17:09:08.447Z,34.60
2018-09-20T17:11:36.799Z,35.10
2018-09-20T17:14:05.959Z,35.00
2018-09-20T17:16:34.368Z,34.90
2018-09-20T17:19:02.729Z,34.90
2018-09-20T17:21:31.109Z,34.80
2018-09-20T17:23:59.486Z,34.60
2018-09-20T17:26:27.848Z,34.60
2018-09-20T17:28:56.206Z,35.50
2018-09-20T17:31:24.627Z,36.50
2018-09-20T17:33:52.995Z,36.80
2018-09-20T17:36:21.837Z,36.70
2018-09-20T17:38:51.517Z,37.00
2018-09-20T17:41:23.810Z,36.60
2018-09-20T17:43:55.063Z,36.60
2018-09-20T17:46:23.457Z,36.90
2018-09-20T17:48:51.814Z,37.30
2018-09-20T17:51:21.063Z,37.70
2018-09-20T17:53:49.891Z,38.10
2018-09-20T17:56:18.728Z,38.40
2018-09-20T17:58:47.782Z,38.50
2018-09-20T18:01:16.271Z,39.00
2018-09-20T18:03:44.667Z,39.50
2018-09-20T18:06:13.017Z,40.20
2018-09-20T18:08:41.360Z,40.60
2018-09-20T18:11:09.711Z,41.00
2018-09-20T18:13:38.065Z,41.20
2018-09-20T18:16:06.392Z,41.20
2018-09-20T18:18:34.790Z,41.90
2018-09-20T18:21:04.123Z,42.80
2018-09-20T18:23:32.577Z,42.80
2018-09-20T18:26:01.018Z,42.80
2018-09-20T18:28:29.353Z,42.70
2018-09-20T18:30:57.708Z,42.50
2018-09-20T18:33:26.062Z,42.50
2018-09-20T18:35:54.409Z,42.80
2018-09-20T18:38:22.856Z,43.30
2018-09-20T18:40:51.208Z,43.60
2018-09-20T18:43:19.594Z,43.50
2018-09-20T18:45:47.920Z,44.10
2018-09-20T18:48:16.282Z,44.30
2018-09-20T18:50:44.622Z,44.70
2018-09-20T18:53:13.042Z,45.00
2018-09-20T18:55:41.400Z,45.30
2018-09-20T18:58:09.816Z,45.80
2018-09-20T19:00:38.136Z,46.70
2018-09-20T19:03:06.576Z,47.40
2018-09-20T19:05:34.896Z,47.90
2018-09-20T19:08:03.420Z,48.00
2018-09-20T19:10:31.814Z,48.10
2018-09-20T19:13:00.188Z,48.40
2018-09-20T19:15:28.606Z,48.50
2018-09-20T19:17:57.135Z,48.60
2018-09-20T19:20:33.951Z,48.60
2018-09-20T19:23:02.359Z,48.60
2018-09-20T19:25:30.772Z,48.50
2018-09-20T19:27:59.120Z,48.60
2018-09-20T19:30:27.500Z,48.60
2018-09-20T19:32:55.958Z,48.90
2018-09-20T19:35:24.392Z,49.00
2018-09-20T19:37:52.716Z,49.90
2018-09-20T19:40:21.080Z,49.60
2018-09-20T19:42:49.426Z,49.70
2018-09-20T19:45:17.926Z,49.90
2018-09-20T19:47:46.914Z,50.20
2018-09-20T19:50:15.279Z,50.30
2018-09-20T19:52:43.613Z,50.40
2018-09-20T19:55:11.973Z,50.70
2018-09-20T19:57:40.416Z,50.90
2018-09-20T20:00:09.517Z,50.90
2018-09-20T20:02:37.944Z,50.80
2018-09-20T20:05:06.392Z,50.80
2018-09-20T20:07:34.743Z,50.80
2018-09-20T20:10:03.168Z,51.30
2018-09-20T20:12:31.518Z,51.50
2018-09-20T20:14:59.895Z,51.70
2018-09-20T20:17:28.327Z,51.80
2018-09-20T20:19:56.766Z,52.00
2018-09-20T20:22:25.156Z,52.10
2018-09-20T20:24:53.581Z,52.30
2018-09-20T20:27:21.992Z,52.20
2018-09-20T20:29:50.295Z,52.60
2018-09-20T20:32:18.756Z,52.70
2018-09-20T20:34:53.963Z,53.00
2018-09-20T20:37:22.450Z,53.10
2018-09-20T20:39:50.812Z,53.30
2018-09-20T20:42:19.140Z,53.40
2018-09-20T20:44:47.492Z,53.70
2018-09-20T20:47:15.791Z,53.90
2018-09-20T20:49:44.153Z,54.00
2018-09-20T20:52:12.497Z,54.10
2018-09-20T20:54:40.897Z,54.20
2018-09-20T20:57:09.252Z,54.10
2018-09-20T20:59:37.592Z,54.20
2018-09-20T21:02:05.924Z,54.60
2018-09-20T21:04:40.909Z,54.90
2018-09-20T21:07:09.284Z,55.00
2018-09-20T21:09:37.756Z,55.30
2018-09-20T21:12:06.086Z,55.30
2018-09-20T21:14:34.894Z,55.30
2018-09-20T21:17:03.216Z,55.80
2018-09-20T21:19:31.568Z,56.00
2018-09-20T21:22:00.453Z,56.20
2018-09-20T21:24:28.791Z,56.30
2018-09-20T21:26:57.143Z,56.90
2018-09-20T21:29:25.515Z,56.90
2018-09-20T21:31:53.898Z,57.70
2018-09-20T21:34:22.237Z,56.80
2018-09-20T21:36:50.656Z,57.20
2018-09-20T21:39:18.973Z,57.20
2018-09-20T21:41:47.311Z,57.70
2018-09-20T21:44:15.671Z,57.70
2018-09-20T21:46:44.028Z,57.50
2018-09-20T21:49:12.392Z,58.20
2018-09-20T21:51:40.767Z,58.40
2018-09-20T21:54:09.139Z,58.50
2018-09-20T21:56:37.485Z,58.30
2018-09-20T21:59:05.853Z,57.70
2018-09-20T22:01:39.467Z,57.80
2018-09-20T22:04:07.878Z,58.00
2018-09-20T22:06:36.501Z,58.90
2018-09-20T22:09:08.095Z,58.90
2018-09-20T22:11:36.577Z,58.80
2018-09-20T22:14:04.929Z,58.80
2018-09-20T22:16:33.487Z,58.80
2018-09-20T22:19:01.855Z,58.70
2018-09-20T22:21:30.199Z,58.70
2018-09-20T22:23:58.621Z,58.70
2018-09-20T22:26:27.068Z,58.70
2018-09-20T22:28:55.402Z,59.60
2018-09-20T22:31:23.755Z,59.80
2018-09-20T22:33:52.348Z,60.50
2018-09-20T22:36:20.716Z,60.80
2018-09-20T22:38:49.030Z,60.90
2018-09-20T22:41:17.486Z,60.80
2018-09-20T22:43:45.795Z,60.90
2018-09-20T22:46:14.192Z,61.20
2018-09-20T22:48:42.890Z,61.10
2018-09-20T22:51:11.256Z,61.00
2018-09-20T22:53:39.735Z,61.50
2018-09-20T22:56:08.131Z,61.40
2018-09-20T22:58:36.540Z,61.20
2018-09-20T23:01:04.886Z,61.00
2018-09-20T23:03:33.219Z,61.00
2018-09-20T23:06:01.542Z,61.10
2018-09-20T23:08:29.886Z,61.10
2018-09-20T23:10:58.212Z,60.80
2018-09-20T23:13:26.580Z,60.70
2018-09-20T23:15:55.407Z,60.80
2018-09-20T23:18:23.766Z,60.90
2018-09-20T23:20:52.084Z,60.80
2018-09-20T23:23:20.402Z,60.90
2018-09-20T23:25:48.748Z,61.00
2018-09-20T23:28:17.091Z,61.10
2018-09-20T23:30:45.465Z,61.10
2018-09-20T23:33:13.804Z,61.10
2018-09-20T23:35:42.172Z,61.00
2018-09-20T23:38:10.663Z,61.00
2018-09-20T23:40:38.998Z,61.20
2018-09-20T23:43:07.380Z,61.00
2018-09-20T23:45:35.696Z,61.10
2018-09-20T23:48:04.052Z,61.30
2018-09-20T23:50:32.398Z,61.70
2018-09-20T23:53:00.888Z,62.00
2018-09-20T23:55:29.256Z,62.00
2018-09-20T23:57:57.564Z,62.30
